Time;durP1;ratioP1;P1;durP2;ratioP2;P2;SDS_P1;SDS_P2;PMS_P1;PMS_P2;Temp;Humidity;BMP_temperature;BMP_pressure;BME280_temperature;BME280_humidity;BME280_pressure;Samples;Min_cycle;Max_cycle;Signal;HPM_P1;HPM_P2
2022/11/30 00:00:53;;;;;;;25.53;14.67;;;9.60;99.90;;;;;;7397005;19;20146;-78
2022/11/30 00:03:19;;;;;;;29.03;15.77;;;9.50;99.90;;;;;;7398982;19;20149;-77
2022/11/30 00:05:45;;;;;;;26.03;16.53;;;9.40;99.90;;;;;;7395969;19;20455;-77
2022/11/30 00:08:11;;;;;;;27.57;15.77;;;9.40;99.90;;;;;;7399349;19;20490;-77
2022/11/30 00:10:38;;;;;;;28.37;15.77;;;9.30;99.90;;;;;;7398104;19;20571;-79
2022/11/30 00:13:03;;;;;;;28.17;16.47;;;9.40;99.90;;;;;;7399318;19;20562;-77
2022/11/30 00:15:29;;;;;;;27.97;16.87;;;9.40;99.90;;;;;;7398084;19;20143;-78
2022/11/30 00:17:56;;;;;;;29.77;15.60;;;9.40;99.90;;;;;;7399787;19;20171;-78
2022/11/30 00:20:22;;;;;;;30.43;16.53;;;9.50;99.90;;;;;;7398205;19;20139;-79
2022/11/30 00:22:48;;;;;;;27.63;15.97;;;9.30;99.90;;;;;;7399902;19;20162;-78
2022/11/30 00:25:14;;;;;;;30.20;16.53;;;9.30;99.90;;;;;;7397176;19;20247;-78
2022/11/30 00:27:40;;;;;;;29.87;16.57;;;9.30;99.90;;;;;;7397266;19;20168;-79
2022/11/30 00:30:06;;;;;;;28.83;15.83;;;9.30;99.90;;;;;;7396523;19;20135;-79
2022/11/30 00:32:32;;;;;;;27.90;16.50;;;9.30;99.90;;;;;;7398760;19;20159;-77
2022/11/30 00:34:58;;;;;;;26.63;15.70;;;9.30;99.90;;;;;;7398070;19;20142;-79
2022/11/30 00:37:24;;;;;;;27.57;17.13;;;9.10;99.90;;;;;;7396301;19;20153;-78
2022/11/30 00:39:49;;;;;;;27.23;16.13;;;9.40;99.90;;;;;;7395134;19;20586;-77
2022/11/30 00:42:15;;;;;;;29.57;16.60;;;9.20;99.90;;;;;;7395960;19;20513;-77
2022/11/30 00:44:41;;;;;;;28.33;16.63;;;9.20;99.90;;;;;;7397918;19;20765;-79
2022/11/30 00:47:06;;;;;;;25.60;16.40;;;9.20;99.90;;;;;;7394245;19;20269;-77
2022/11/30 00:49:35;;;;;;;25.63;15.63;;;9.20;99.90;;;;;;7397352;19;20135;-78
2022/11/30 00:52:01;;;;;;;31.53;17.27;;;9.30;99.90;;;;;;7396281;19;20161;-78
2022/11/30 00:54:27;;;;;;;25.73;16.57;;;9.30;99.90;;;;;;7396424;19;20178;-77
2022/11/30 00:56:52;;;;;;;25.33;15.07;;;9.30;99.90;;;;;;7398174;19;20147;-78
2022/11/30 00:59:18;;;;;;;30.07;17.57;;;9.30;99.90;;;;;;7397437;19;20142;-80
2022/11/30 01:01:44;;;;;;;24.30;15.40;;;9.50;99.90;;;;;;7397663;19;20193;-77
2022/11/30 01:04:10;;;;;;;27.30;16.37;;;9.30;99.90;;;;;;7394621;19;20139;-79
2022/11/30 01:06:36;;;;;;;24.47;15.33;;;9.30;99.90;;;;;;7395090;19;20607;-78
2022/11/30 01:09:02;;;;;;;28.17;16.63;;;9.40;99.90;;;;;;7397245;19;20138;-79
2022/11/30 01:11:30;;;;;;;26.50;16.33;;;9.30;99.90;;;;;;7396124;19;20552;-77
2022/11/30 01:13:58;;;;;;;25.63;16.40;;;9.20;99.90;;;;;;7395598;19;20127;-78
2022/11/30 01:16:27;;;;;;;26.97;16.30;;;9.20;99.90;;;;;;7395963;19;20131;-78
2022/11/30 01:18:53;;;;;;;26.63;16.40;;;9.30;99.90;;;;;;7397228;19;20131;-78
2022/11/30 01:21:24;;;;;;;26.30;15.67;;;9.30;99.90;;;;;;7396586;19;20576;-79
2022/11/30 01:23:50;;;;;;;29.23;16.87;;;9.20;99.90;;;;;;7395664;19;20594;-79
2022/11/30 01:26:17;;;;;;;27.50;15.73;;;9.30;99.90;;;;;;7395068;19;20145;-78
2022/11/30 01:28:43;;;;;;;30.33;16.23;;;9.30;99.90;;;;;;7397019;19;20212;-79
2022/11/30 01:31:11;;;;;;;26.77;16.53;;;9.30;99.90;;;;;;7394645;19;20138;-77
2022/11/30 01:33:37;;;;;;;24.17;14.67;;;9.40;99.90;;;;;;7397003;19;20131;-78
2022/11/30 01:36:05;;;;;;;25.10;14.73;;;9.20;99.90;;;;;;7396268;19;20138;-78
2022/11/30 01:38:36;;;;;;;26.70;16.03;;;9.30;99.90;;;;;;7396852;19;20131;-79
2022/11/30 01:41:03;;;;;;;25.37;14.77;;;9.20;99.90;;;;;;7398180;19;20607;-78
2022/11/30 01:43:49;;;;;;;24.93;15.63;;;9.30;99.90;;;;;;7396669;19;20194;-78
2022/11/30 01:46:29;;;;;;;24.37;15.70;;;9.20;99.90;;;;;;7392361;19;20138;-80
2022/11/30 01:49:11;;;;;;;25.30;15.10;;;9.30;99.90;;;;;;7395032;19;20151;-79
2022/11/30 01:51:45;;;;;;;26.17;14.43;;;9.20;99.90;;;;;;7393867;19;20681;-78
2022/11/30 01:54:16;;;;;;;23.57;14.57;;;9.20;99.90;;;;;;7393936;19;20143;-79
2022/11/30 01:56:55;;;;;;;26.23;15.53;;;9.10;99.90;;;;;;7394310;19;20147;-78
2022/11/30 01:59:23;;;;;;;26.17;14.23;;;9.10;99.90;;;;;;7394674;19;20150;-79
2022/11/30 02:01:51;;;;;;;24.07;15.57;;;9.20;99.90;;;;;;7394441;19;20158;-78
2022/11/30 02:04:28;;;;;;;29.23;14.63;;;9.10;99.90;;;;;;7392699;19;20496;-79
2022/11/30 02:06:56;;;;;;;24.70;14.67;;;9.20;99.90;;;;;;7391008;19;20637;-78
2022/11/30 02:09:22;;;;;;;25.00;15.13;;;9.30;99.90;;;;;;7392222;19;20127;-77
2022/11/30 02:11:49;;;;;;;25.83;14.37;;;9.40;99.90;;;;;;7395311;19;20204;-78
2022/11/30 02:14:38;;;;;;;27.67;15.70;;;9.20;99.90;;;;;;7395594;19;20489;-77
2022/11/30 02:17:27;;;;;;;23.43;14.57;;;9.20;99.90;;;;;;7393223;19;20515;-78
2022/11/30 02:20:11;;;;;;;24.00;14.57;;;9.10;99.90;;;;;;7391351;19;20134;-78
2022/11/30 02:22:56;;;;;;;23.10;14.83;;;9.20;99.90;;;;;;7395720;19;20162;-78
2022/11/30 02:25:35;;;;;;;24.10;13.63;;;9.20;99.90;;;;;;7392912;19;20176;-79
2022/11/30 02:28:10;;;;;;;21.73;12.93;;;9.20;99.90;;;;;;7393734;19;20551;-79
2022/11/30 02:30:40;;;;;;;24.77;13.53;;;9.20;99.90;;;;;;7393813;19;20146;-78
2022/11/30 02:33:10;;;;;;;25.93;14.50;;;9.20;99.90;;;;;;7393821;19;20479;-78
2022/11/30 02:35:39;;;;;;;24.03;14.47;;;8.80;99.90;;;;;;7396199;19;20234;-78
2022/11/30 02:38:06;;;;;;;20.20;12.90;;;9.00;99.90;;;;;;7394669;19;20606;-79
2022/11/30 02:40:31;;;;;;;21.00;13.60;;;9.10;99.90;;;;;;7393901;19;20201;-78
2022/11/30 02:43:01;;;;;;;22.20;13.20;;;9.10;99.90;;;;;;7390239;19;20187;-80
2022/11/30 02:45:45;;;;;;;22.43;13.83;;;9.10;99.90;;;;;;7392811;19;20131;-79
2022/11/30 02:48:17;;;;;;;23.43;13.90;;;9.10;99.90;;;;;;7395116;19;20191;-79
2022/11/30 02:50:47;;;;;;;24.53;14.83;;;9.10;99.90;;;;;;7393729;19;20135;-79
2022/11/30 02:53:13;;;;;;;22.00;12.87;;;9.00;99.90;;;;;;7395669;19;20130;-79
2022/11/30 02:55:39;;;;;;;21.20;13.30;;;9.10;99.90;;;;;;7390660;19;20147;-80
2022/11/30 02:58:04;;;;;;;20.23;13.33;;;9.00;99.90;;;;;;7393313;19;20194;-78
2022/11/30 03:00:31;;;;;;;20.17;12.93;;;9.00;99.90;;;;;;7394324;19;20157;-80
2022/11/30 03:02:56;;;;;;;20.97;12.73;;;9.20;99.90;;;;;;7394847;19;20165;-79
2022/11/30 03:05:23;;;;;;;21.50;12.67;;;9.20;99.90;;;;;;7392858;19;20135;-80
2022/11/30 03:07:48;;;;;;;22.10;13.27;;;9.20;99.90;;;;;;7394967;19;20130;-79
2022/11/30 03:10:14;;;;;;;19.17;12.30;;;9.30;99.90;;;;;;7392794;19;20204;-80
2022/11/30 03:12:40;;;;;;;20.20;12.80;;;9.00;99.90;;;;;;7391071;19;20487;-81
2022/11/30 03:15:06;;;;;;;17.97;12.53;;;9.10;99.90;;;;;;7390844;19;20239;-80
2022/11/30 03:17:32;;;;;;;16.80;11.50;;;9.20;99.90;;;;;;7391883;19;20515;-79
2022/11/30 03:19:58;;;;;;;19.57;11.77;;;9.10;99.90;;;;;;7392304;19;20150;-79
2022/11/30 03:22:24;;;;;;;18.13;12.30;;;9.20;99.90;;;;;;7392745;19;20142;-80
2022/11/30 03:24:49;;;;;;;15.53;11.13;;;9.20;99.90;;;;;;7393034;19;20142;-79
2022/11/30 03:27:15;;;;;;;18.30;10.87;;;9.20;99.90;;;;;;7391235;19;20625;-79
2022/11/30 03:29:41;;;;;;;18.47;11.93;;;9.20;99.90;;;;;;7393480;19;20167;-79
2022/11/30 03:32:07;;;;;;;18.27;11.50;;;9.30;99.90;;;;;;7392434;19;20225;-79
2022/11/30 03:34:32;;;;;;;18.63;11.10;;;9.20;99.90;;;;;;7393504;19;20150;-79
2022/11/30 03:36:58;;;;;;;18.47;11.43;;;9.20;99.90;;;;;;7392081;19;20477;-79
2022/11/30 03:39:24;;;;;;;16.43;10.83;;;9.20;99.90;;;;;;7391036;19;20139;-79
2022/11/30 03:41:50;;;;;;;16.90;10.50;;;9.20;99.90;;;;;;7391070;19;20175;-79
2022/11/30 03:44:16;;;;;;;18.23;11.17;;;9.20;99.90;;;;;;7391478;19;20535;-78
2022/11/30 03:46:42;;;;;;;15.57;10.67;;;9.20;99.90;;;;;;7392515;19;20147;-78
2022/11/30 03:49:08;;;;;;;16.63;10.73;;;9.20;99.90;;;;;;7393278;19;20134;-78
2022/11/30 03:51:34;;;;;;;17.43;10.57;;;9.20;99.90;;;;;;7391941;19;20168;-80
2022/11/30 03:54:00;;;;;;;18.33;10.90;;;9.20;99.90;;;;;;7387701;19;20687;-80
2022/11/30 03:56:26;;;;;;;16.47;10.97;;;9.20;99.90;;;;;;7389106;19;20182;-79
2022/11/30 03:58:52;;;;;;;19.73;11.13;;;9.10;99.90;;;;;;7391285;19;20139;-81
2022/11/30 04:01:22;;;;;;;16.83;11.00;;;9.10;99.90;;;;;;7391579;19;20150;-78
2022/11/30 04:03:49;;;;;;;15.63;10.13;;;9.00;99.90;;;;;;7390027;19;20162;-79
2022/11/30 04:06:16;;;;;;;17.67;11.87;;;9.00;99.90;;;;;;7389717;19;20154;-80
2022/11/30 04:08:42;;;;;;;18.80;11.37;;;9.10;99.90;;;;;;7392219;19;20131;-80
2022/11/30 04:11:09;;;;;;;15.70;10.63;;;9.10;99.90;;;;;;7391758;19;20496;-79
2022/11/30 04:13:36;;;;;;;17.60;11.70;;;9.10;99.90;;;;;;7392806;19;20167;-78
2022/11/30 04:16:02;;;;;;;17.70;11.53;;;9.20;99.90;;;;;;7391868;19;20146;-78
2022/11/30 04:18:31;;;;;;;16.67;11.27;;;9.20;99.90;;;;;;7391641;19;20138;-78
2022/11/30 04:20:58;;;;;;;19.00;11.63;;;9.20;99.90;;;;;;7390182;19;20139;-80
2022/11/30 04:23:27;;;;;;;17.67;10.87;;;9.10;99.90;;;;;;7390715;19;20155;-79
2022/11/30 04:25:53;;;;;;;18.33;11.17;;;9.00;99.90;;;;;;7390217;19;20591;-79
2022/11/30 04:28:19;;;;;;;15.03;10.53;;;9.00;99.90;;;;;;7395785;19;20135;-81
2022/11/30 04:30:45;;;;;;;16.97;11.23;;;9.00;99.90;;;;;;7397022;19;20614;-78
2022/11/30 04:33:13;;;;;;;15.60;10.27;;;9.10;99.90;;;;;;7399083;19;20135;-79
2022/11/30 04:35:46;;;;;;;15.40;10.63;;;9.10;99.90;;;;;;7398995;19;20143;-79
2022/11/30 04:38:11;;;;;;;18.40;10.63;;;9.00;99.90;;;;;;7397888;19;20188;-77
2022/11/30 04:40:42;;;;;;;18.20;10.77;;;9.10;99.90;;;;;;7399130;19;20139;-78
2022/11/30 04:43:09;;;;;;;16.67;10.70;;;9.10;99.90;;;;;;7397558;19;20170;-79
2022/11/30 04:45:35;;;;;;;16.97;10.97;;;9.00;99.90;;;;;;7398059;19;20586;-78
2022/11/30 04:48:01;;;;;;;17.77;11.30;;;9.00;99.90;;;;;;7397857;19;20151;-78
2022/11/30 04:50:27;;;;;;;14.73;9.93;;;9.00;99.90;;;;;;7396753;19;20174;-78
2022/11/30 04:52:53;;;;;;;17.77;10.73;;;9.10;99.90;;;;;;7395275;19;20264;-78
2022/11/30 04:55:19;;;;;;;15.87;11.27;;;9.10;99.90;;;;;;7394567;19;20178;-78
2022/11/30 04:57:46;;;;;;;16.47;10.53;;;9.20;99.90;;;;;;7395890;19;20551;-79
2022/11/30 05:00:14;;;;;;;16.53;10.40;;;9.20;99.90;;;;;;7396187;19;20163;-81
2022/11/30 05:02:39;;;;;;;16.53;10.87;;;9.20;99.90;;;;;;7396921;19;20157;-78
2022/11/30 05:05:05;;;;;;;15.37;10.50;;;9.10;99.90;;;;;;7396736;19;20639;-78
2022/11/30 05:07:31;;;;;;;16.13;10.97;;;9.10;99.90;;;;;;7398933;19;20130;-79
2022/11/30 05:09:57;;;;;;;20.77;11.10;;;9.10;99.90;;;;;;7396530;19;20587;-78
2022/11/30 05:12:23;;;;;;;16.50;10.70;;;9.20;99.90;;;;;;7397640;19;20458;-78
2022/11/30 05:14:48;;;;;;;14.53;9.80;;;9.10;99.90;;;;;;7394253;19;20154;-79
2022/11/30 05:17:15;;;;;;;16.80;10.37;;;9.10;99.90;;;;;;7396056;19;20150;-79
2022/11/30 05:19:40;;;;;;;15.10;9.43;;;9.10;99.90;;;;;;7396928;19;20157;-79
2022/11/30 05:22:06;;;;;;;16.07;10.27;;;9.10;99.90;;;;;;7395758;19;20210;-78
2022/11/30 05:24:32;;;;;;;17.80;10.37;;;9.10;99.90;;;;;;7396115;19;20138;-79
2022/11/30 05:26:58;;;;;;;14.70;9.63;;;9.10;99.90;;;;;;7392777;19;20143;-79
2022/11/30 05:29:24;;;;;;;15.63;10.07;;;9.10;99.90;;;;;;7395688;19;20144;-79
2022/11/30 05:31:50;;;;;;;15.07;10.07;;;9.10;99.90;;;;;;7395165;19;20139;-80
2022/11/30 05:34:16;;;;;;;15.97;10.03;;;9.00;99.90;;;;;;7395389;19;20489;-79
2022/11/30 05:36:41;;;;;;;14.63;10.80;;;8.90;99.90;;;;;;7394287;19;20514;-80
2022/11/30 05:39:07;;;;;;;14.07;9.37;;;8.80;99.90;;;;;;7395265;19;20162;-80
2022/11/30 05:41:33;;;;;;;17.20;10.07;;;8.80;99.90;;;;;;7394504;19;20197;-79
2022/11/30 05:43:59;;;;;;;14.23;10.13;;;8.90;99.90;;;;;;7392637;19;20191;-80
2022/11/30 05:46:24;;;;;;;15.13;10.30;;;9.00;99.90;;;;;;7394892;19;20151;-78
2022/11/30 05:48:50;;;;;;;15.50;10.23;;;9.00;99.90;;;;;;7397089;19;20146;-79
2022/11/30 05:51:18;;;;;;;14.90;10.33;;;9.00;99.90;;;;;;7397689;19;20146;-79
2022/11/30 05:53:45;;;;;;;14.97;9.80;;;8.90;99.90;;;;;;7396963;19;20620;-79
2022/11/30 05:56:13;;;;;;;16.70;10.07;;;9.00;99.90;;;;;;7392488;19;20629;-79
2022/11/30 05:58:40;;;;;;;15.43;9.97;;;9.20;99.90;;;;;;7395248;19;20609;-78
2022/11/30 06:01:06;;;;;;;19.87;10.57;;;8.90;99.90;;;;;;7395205;19;20148;-79
2022/11/30 06:03:34;;;;;;;16.17;10.30;;;9.00;99.90;;;;;;7394065;19;20222;-79
2022/11/30 06:06:00;;;;;;;15.17;9.23;;;9.10;99.90;;;;;;7393582;19;20135;-79
2022/11/30 06:08:26;;;;;;;15.60;9.50;;;9.00;99.90;;;;;;7393726;19;20155;-80
2022/11/30 06:10:52;;;;;;;14.40;10.37;;;9.10;99.90;;;;;;7394323;19;20138;-78
2022/11/30 06:13:19;;;;;;;14.27;9.27;;;9.10;99.90;;;;;;7394636;19;20453;-80
2022/11/30 06:15:45;;;;;;;14.40;9.43;;;9.00;99.90;;;;;;7393578;19;20135;-79
2022/11/30 06:18:12;;;;;;;13.57;9.70;;;9.10;99.90;;;;;;7395825;19;20214;-80
2022/11/30 06:20:39;;;;;;;13.63;9.13;;;9.10;99.90;;;;;;7392909;19;20154;-80
2022/11/30 06:23:06;;;;;;;16.07;9.90;;;9.10;99.90;;;;;;7393908;19;20154;-79
2022/11/30 06:25:32;;;;;;;15.23;10.53;;;9.10;99.90;;;;;;7392520;19;20148;-80
2022/11/30 06:27:58;;;;;;;14.30;9.47;;;9.00;99.90;;;;;;7393812;19;20131;-78
2022/11/30 06:30:23;;;;;;;12.50;9.20;;;9.10;99.90;;;;;;7393372;19;20158;-79
2022/11/30 06:32:50;;;;;;;13.97;8.73;;;9.10;99.90;;;;;;7393175;19;20206;-79
2022/11/30 06:35:17;;;;;;;16.30;9.87;;;9.10;99.90;;;;;;7390780;19;20712;-78
2022/11/30 06:37:44;;;;;;;14.73;9.77;;;9.00;99.90;;;;;;7392140;19;20146;-79
2022/11/30 06:40:12;;;;;;;14.43;9.17;;;9.00;99.90;;;;;;7393789;19;20158;-77
2022/11/30 06:42:38;;;;;;;14.07;9.93;;;9.10;99.90;;;;;;7394211;19;20175;-78
2022/11/30 06:45:06;;;;;;;14.00;8.93;;;9.10;99.90;;;;;;7394404;19;20138;-77
2022/11/30 06:47:32;;;;;;;14.90;9.73;;;9.10;99.90;;;;;;7392802;19;20218;-77
2022/11/30 06:49:58;;;;;;;14.63;9.77;;;9.10;99.90;;;;;;7394258;19;20134;-77
2022/11/30 06:52:24;;;;;;;14.87;9.67;;;9.00;99.90;;;;;;7394975;19;20146;-84
2022/11/30 06:54:50;;;;;;;13.83;8.73;;;9.20;99.90;;;;;;7395885;19;20174;-77
2022/11/30 06:57:16;;;;;;;13.47;9.17;;;9.10;99.90;;;;;;7394628;19;20146;-77
2022/11/30 06:59:42;;;;;;;14.70;9.37;;;9.00;99.90;;;;;;7394937;19;20153;-76
2022/11/30 07:02:11;;;;;;;15.00;9.20;;;9.00;99.90;;;;;;7394937;19;20143;-77
2022/11/30 07:04:37;;;;;;;14.33;8.53;;;9.10;99.90;;;;;;7396609;19;20175;-77
2022/11/30 07:07:03;;;;;;;14.10;8.70;;;9.10;99.90;;;;;;7394001;19;20135;-78
2022/11/30 07:09:31;;;;;;;13.43;9.37;;;9.30;99.90;;;;;;7397877;19;20159;-78
2022/11/30 07:11:57;;;;;;;12.77;8.23;;;9.10;99.90;;;;;;7395494;19;20247;-78
2022/11/30 07:14:23;;;;;;;13.67;8.80;;;9.10;99.90;;;;;;7397046;19;20250;-78
2022/11/30 07:16:48;;;;;;;12.93;8.90;;;9.00;99.90;;;;;;7396871;19;20142;-78
2022/11/30 07:19:14;;;;;;;9.97;7.97;;;9.00;99.90;;;;;;7396326;19;20238;-77
2022/11/30 07:21:40;;;;;;;14.93;9.70;;;9.10;99.90;;;;;;7395133;19;20536;-77
2022/11/30 07:26:50;;;;;;;14.03;8.67;;;9.00;99.90;;;;;;7394011;19;20138;-79
2022/11/30 07:29:16;;;;;;;14.23;9.47;;;9.00;99.90;;;;;;7397080;19;20889;-81
2022/11/30 07:31:41;;;;;;;15.30;10.03;;;9.00;99.90;;;;;;7395811;19;20158;-79
2022/11/30 07:34:08;;;;;;;15.70;9.50;;;9.00;99.90;;;;;;7395712;19;20828;-78
2022/11/30 07:36:35;;;;;;;13.87;8.93;;;9.10;99.90;;;;;;7393661;19;20161;-78
2022/11/30 07:39:02;;;;;;;13.97;9.37;;;9.20;99.90;;;;;;7393939;19;20209;-78
2022/11/30 07:41:28;;;;;;;14.33;9.20;;;9.20;99.90;;;;;;7394871;19;20150;-79
2022/11/30 07:43:54;;;;;;;14.13;9.47;;;9.20;99.90;;;;;;7391914;19;20173;-79
2022/11/30 07:46:20;;;;;;;15.73;9.50;;;9.20;99.90;;;;;;7393212;19;20123;-79
2022/11/30 07:48:46;;;;;;;14.57;9.20;;;9.20;99.90;;;;;;7393793;19;20123;-78
2022/11/30 07:51:20;;;;;;;18.13;9.50;;;9.10;99.90;;;;;;7393346;19;20123;-79
2022/11/30 07:53:47;;;;;;;13.57;9.67;;;9.10;99.90;;;;;;7393629;19;20126;-78
2022/11/30 07:56:15;;;;;;;12.77;9.03;;;9.20;99.90;;;;;;7391672;19;20198;-81
2022/11/30 07:58:42;;;;;;;15.00;9.03;;;9.10;99.90;;;;;;7397120;19;20518;-79
2022/11/30 08:01:14;;;;;;;14.97;9.50;;;9.10;99.90;;;;;;7391660;19;20131;-80
2022/11/30 08:03:40;;;;;;;12.77;9.00;;;9.20;99.90;;;;;;7399385;19;20131;-80
2022/11/30 08:06:14;;;;;;;15.03;9.57;;;9.20;99.90;;;;;;7400898;19;20130;-80
2022/11/30 08:08:44;;;;;;;16.67;10.33;;;9.20;99.90;;;;;;7401929;19;20582;-79
2022/11/30 08:11:14;;;;;;;14.90;9.53;;;9.20;99.90;;;;;;7409080;19;20143;-77
2022/11/30 08:13:41;;;;;;;12.73;9.00;;;9.20;99.90;;;;;;7400822;19;20595;-81
2022/11/30 08:16:10;;;;;;;17.97;9.37;;;9.10;99.90;;;;;;7402741;19;20494;-80
2022/11/30 08:18:36;;;;;;;16.13;9.70;;;9.10;99.90;;;;;;7402826;19;20146;-78
2022/11/30 08:21:06;;;;;;;17.13;10.30;;;9.20;99.90;;;;;;7400544;19;20217;-78
2022/11/30 08:23:40;;;;;;;15.87;9.90;;;8.80;99.90;;;;;;7398589;19;20159;-79
2022/11/30 08:26:12;;;;;;;19.63;10.13;;;9.00;99.90;;;;;;7399447;19;20168;-80
2022/11/30 08:28:38;;;;;;;15.23;10.07;;;8.90;99.90;;;;;;7398896;19;20159;-80
2022/11/30 08:31:07;;;;;;;15.90;10.03;;;8.90;99.90;;;;;;7398236;19;20161;-78
2022/11/30 08:33:34;;;;;;;14.60;9.83;;;9.20;99.90;;;;;;7398639;19;20155;-79
2022/11/30 08:36:15;;;;;;;15.17;9.87;;;9.30;99.90;;;;;;7398257;19;20146;-78
2022/11/30 08:38:43;;;;;;;17.87;11.10;;;8.70;99.90;;;;;;7397885;19;20162;-78
2022/11/30 08:41:11;;;;;;;15.80;10.67;;;8.90;99.90;;;;;;7397992;19;20158;-77
2022/11/30 08:43:37;;;;;;;17.97;11.10;;;9.00;99.90;;;;;;7395455;19;20178;-79
2022/11/30 08:46:05;;;;;;;18.20;10.60;;;9.10;99.90;;;;;;7398776;19;20584;-79
2022/11/30 08:48:31;;;;;;;17.90;11.43;;;9.10;99.90;;;;;;7397279;19;20162;-79
2022/11/30 08:51:02;;;;;;;18.07;10.33;;;9.20;99.90;;;;;;7395040;19;20155;-80
2022/11/30 08:53:28;;;;;;;16.53;10.73;;;9.30;99.90;;;;;;7399003;19;20564;-78
2022/11/30 08:55:59;;;;;;;16.03;10.27;;;9.50;99.90;;;;;;7394432;19;20187;-80
2022/11/30 08:58:29;;;;;;;17.40;11.40;;;9.20;99.90;;;;;;7396765;19;20155;-81
2022/11/30 09:01:03;;;;;;;17.77;10.70;;;9.30;99.90;;;;;;7398362;19;20146;-79
2022/11/30 09:03:29;;;;;;;20.97;11.70;;;9.40;99.90;;;;;;7399251;19;20146;-79
2022/11/30 09:06:05;;;;;;;19.40;12.17;;;9.40;99.90;;;;;;7397704;19;20490;-78
2022/11/30 09:08:33;;;;;;;21.03;12.57;;;9.40;99.90;;;;;;7400174;19;20606;-79
2022/11/30 09:11:12;;;;;;;19.57;12.03;;;9.30;99.90;;;;;;7396852;19;20151;-79
2022/11/30 09:13:38;;;;;;;18.57;11.37;;;9.30;99.90;;;;;;7398648;19;20175;-80
2022/11/30 09:16:05;;;;;;;18.43;11.63;;;9.50;99.90;;;;;;7394856;19;20131;-78
2022/11/30 09:18:34;;;;;;;17.57;10.83;;;9.50;99.90;;;;;;7396717;19;20162;-81
2022/11/30 09:21:02;;;;;;;17.80;10.77;;;9.60;99.90;;;;;;7396804;19;20139;-78
2022/11/30 09:23:29;;;;;;;18.53;10.40;;;9.50;99.90;;;;;;7396721;19;20131;-78
2022/11/30 09:25:59;;;;;;;18.97;11.87;;;9.50;99.90;;;;;;7394805;19;20154;-79
2022/11/30 09:28:26;;;;;;;17.97;11.60;;;9.50;99.90;;;;;;7397026;19;20178;-80
2022/11/30 09:30:52;;;;;;;20.40;12.43;;;9.60;99.90;;;;;;7395165;19;20146;-79
2022/11/30 09:33:19;;;;;;;20.90;13.17;;;9.60;99.90;;;;;;7396163;19;20611;-80
2022/11/30 09:35:53;;;;;;;19.63;11.73;;;9.70;99.90;;;;;;7394315;19;20166;-78
2022/11/30 09:38:18;;;;;;;18.00;12.33;;;9.60;99.90;;;;;;7392557;19;20153;-79
2022/11/30 09:40:49;;;;;;;19.10;11.27;;;9.70;99.90;;;;;;7394650;19;20127;-80
2022/11/30 09:43:45;;;;;;;19.80;11.93;;;9.60;99.90;;;;;;7393325;19;21640;-79
2022/11/30 09:46:11;;;;;;;18.60;11.00;;;9.30;99.90;;;;;;7394211;19;20486;-80
2022/11/30 09:49:01;;;;;;;21.33;13.53;;;9.40;99.90;;;;;;7393806;19;20138;-81
2022/11/30 09:51:41;;;;;;;22.43;12.67;;;9.50;99.90;;;;;;7397493;19;20135;-80
2022/11/30 09:54:13;;;;;;;18.30;11.37;;;9.60;99.90;;;;;;7393688;19;20150;-80
2022/11/30 09:56:41;;;;;;;20.83;11.67;;;9.70;99.90;;;;;;7392180;19;20154;-79
2022/11/30 09:59:17;;;;;;;20.53;12.93;;;9.50;99.90;;;;;;7393980;19;20189;-80
2022/11/30 10:01:44;;;;;;;17.60;10.73;;;9.50;99.90;;;;;;7392143;19;20193;-79
2022/11/30 10:04:27;;;;;;;19.03;11.00;;;9.50;99.90;;;;;;7393669;19;20143;-79
2022/11/30 10:07:14;;;;;;;21.67;11.77;;;9.60;99.90;;;;;;7390362;19;20162;-80
2022/11/30 10:09:48;;;;;;;17.97;10.70;;;9.60;99.90;;;;;;7401269;19;20134;-80
2022/11/30 10:12:30;;;;;;;20.27;11.13;;;9.40;99.90;;;;;;7400577;19;20170;-80
2022/11/30 10:15:28;;;;;;;17.57;10.37;;;9.60;99.90;;;;;;7392722;19;20170;-80
2022/11/30 10:18:22;;;;;;;18.77;11.37;;;9.30;99.90;;;;;;7389972;19;20582;-79
2022/11/30 10:21:20;;;;;;;18.67;11.90;;;9.50;99.90;;;;;;7395511;19;20143;-78
2022/11/30 10:24:08;;;;;;;17.20;11.33;;;9.70;99.90;;;;;;7394082;19;20159;-79
2022/11/30 10:26:37;;;;;;;20.37;12.23;;;9.80;99.90;;;;;;7390146;19;20591;-79
2022/11/30 10:29:30;;;;;;;19.77;11.67;;;9.90;99.90;;;;;;7395635;19;20599;-77
2022/11/30 10:32:08;;;;;;;20.93;12.20;;;9.90;99.90;;;;;;7393785;19;20145;-78
2022/11/30 10:34:35;;;;;;;17.27;11.20;;;9.80;99.90;;;;;;7392286;19;20170;-78
2022/11/30 10:37:24;;;;;;;19.27;11.17;;;9.60;99.90;;;;;;7392533;19;20139;-78
2022/11/30 10:40:09;;;;;;;18.20;11.20;;;9.40;99.90;;;;;;7395858;19;20134;-78
2022/11/30 10:43:06;;;;;;;16.30;10.17;;;9.50;99.90;;;;;;7396527;19;20156;-79
2022/11/30 10:45:37;;;;;;;14.80;10.33;;;9.70;99.90;;;;;;7398128;19;20513;-80
2022/11/30 10:48:16;;;;;;;16.33;9.90;;;9.80;99.90;;;;;;7399705;19;20137;-80
2022/11/30 10:50:42;;;;;;;18.03;10.40;;;9.70;99.90;;;;;;7395420;19;20145;-77
2022/11/30 10:53:10;;;;;;;22.73;14.20;;;9.00;99.90;;;;;;7394157;19;20482;-80
2022/11/30 10:55:41;;;;;;;26.77;14.87;;;9.10;99.90;;;;;;7390031;19;20164;-79
2022/11/30 10:58:37;;;;;;;23.37;14.43;;;9.40;99.90;;;;;;7394011;19;20122;-78
2022/11/30 11:01:09;;;;;;;16.93;10.23;;;9.60;99.90;;;;;;7393819;19;20638;-79
2022/11/30 11:03:36;;;;;;;17.70;10.23;;;9.80;99.90;;;;;;7400530;19;20137;-79
2022/11/30 11:06:17;;;;;;;16.40;10.73;;;9.70;99.90;;;;;;7394941;19;20150;-79
2022/11/30 11:08:45;;;;;;;15.63;9.80;;;9.70;99.90;;;;;;7395302;19;20130;-78
2022/11/30 11:11:35;;;;;;;15.30;10.50;;;9.80;99.90;;;;;;7393089;19;20126;-77
2022/11/30 11:14:17;;;;;;;17.27;9.47;;;9.80;99.90;;;;;;7392985;19;20126;-77
2022/11/30 11:17:25;;;;;;;18.53;11.73;;;9.80;99.90;;;;;;7390472;19;20157;-77
2022/11/30 11:19:51;;;;;;;16.60;10.37;;;9.80;99.90;;;;;;7393322;19;20686;-80
2022/11/30 11:22:25;;;;;;;16.67;10.17;;;10.00;99.90;;;;;;7393833;19;20605;-74
2022/11/30 11:25:10;;;;;;;14.43;10.10;;;9.80;99.90;;;;;;7394083;19;20114;-78
2022/11/30 11:27:35;;;;;;;16.00;9.87;;;9.80;99.90;;;;;;7391974;19;20138;-76
2022/11/30 11:30:16;;;;;;;14.77;9.60;;;9.90;99.90;;;;;;7393171;19;20230;-77
2022/11/30 11:32:58;;;;;;;16.50;9.80;;;9.80;99.90;;;;;;7391205;19;20138;-76
2022/11/30 11:35:37;;;;;;;13.27;8.70;;;9.80;99.90;;;;;;7394622;19;20138;-78
2022/11/30 11:38:27;;;;;;;16.63;10.63;;;9.80;99.90;;;;;;7397510;19;20149;-77
2022/11/30 11:41:09;;;;;;;15.43;9.63;;;9.80;99.90;;;;;;7401724;19;20141;-77
2022/11/30 11:44:07;;;;;;;17.13;10.40;;;9.80;99.90;;;;;;7397922;19;20150;-77
2022/11/30 11:46:36;;;;;;;16.80;11.27;;;9.80;99.90;;;;;;7400700;19;20546;-77
2022/11/30 11:49:05;;;;;;;17.93;11.00;;;9.80;99.90;;;;;;7401099;19;20145;-77
2022/11/30 11:51:33;;;;;;;15.60;9.07;;;9.80;99.90;;;;;;7401215;19;20164;-78
2022/11/30 11:54:34;;;;;;;12.97;8.37;;;9.80;99.90;;;;;;7402789;19;20166;-76
2022/11/30 11:57:01;;;;;;;15.60;10.07;;;9.90;99.90;;;;;;7397891;19;20214;-77
2022/11/30 11:59:45;;;;;;;14.50;8.60;;;10.00;99.90;;;;;;7399993;19;20222;-78
2022/11/30 12:02:32;;;;;;;14.20;9.33;;;9.90;99.90;;;;;;7402210;19;20130;-79
2022/11/30 12:05:04;;;;;;;13.03;8.83;;;9.90;99.90;;;;;;7398161;19;20170;-77
2022/11/30 12:07:53;;;;;;;14.30;8.60;;;9.90;99.90;;;;;;7394047;19;20145;-77
2022/11/30 12:10:43;;;;;;;16.03;9.20;;;9.90;99.90;;;;;;7397920;19;20146;-78
2022/11/30 12:13:16;;;;;;;13.80;9.13;;;9.90;99.90;;;;;;7397007;19;20131;-77
2022/11/30 12:16:07;;;;;;;14.83;9.00;;;9.70;99.90;;;;;;7399039;19;20136;-77
2022/11/30 12:18:50;;;;;;;13.17;9.73;;;9.80;99.90;;;;;;7400730;19;20163;-77
2022/11/30 12:21:54;;;;;;;13.83;9.40;;;9.80;99.90;;;;;;7398351;19;20198;-77
2022/11/30 12:24:48;;;;;;;14.23;9.07;;;9.90;99.90;;;;;;7397453;19;20150;-76
2022/11/30 12:27:25;;;;;;;13.43;9.10;;;9.90;99.90;;;;;;7394795;19;20144;-77
2022/11/30 12:30:12;;;;;;;13.13;7.93;;;9.90;99.90;;;;;;7396681;19;20150;-77
2022/11/30 12:33:03;;;;;;;16.70;10.27;;;9.80;99.90;;;;;;7395548;19;20154;-77
2022/11/30 12:35:43;;;;;;;15.37;9.47;;;9.80;99.90;;;;;;7396447;19;20135;-76
2022/11/30 12:38:16;;;;;;;12.60;8.00;;;9.80;99.90;;;;;;7397274;19;20135;-77
2022/11/30 12:41:01;;;;;;;13.33;8.23;;;9.90;99.90;;;;;;7396271;19;20678;-77
2022/11/30 12:43:39;;;;;;;18.70;11.97;;;9.90;99.90;;;;;;7393637;19;20158;-77
2022/11/30 12:46:19;;;;;;;14.27;9.47;;;10.00;99.90;;;;;;7396257;19;20147;-77
2022/11/30 12:49:29;;;;;;;14.00;8.37;;;10.00;99.90;;;;;;7394261;19;20178;-78
2022/11/30 12:52:12;;;;;;;13.40;8.30;;;10.10;99.90;;;;;;7395344;19;20154;-76
2022/11/30 12:54:46;;;;;;;13.10;8.00;;;10.00;99.90;;;;;;7396366;19;20576;-77
2022/11/30 12:57:20;;;;;;;12.67;8.13;;;9.60;99.90;;;;;;7395469;19;20139;-75
2022/11/30 13:00:00;;;;;;;14.77;8.90;;;9.20;99.90;;;;;;7397124;19;20165;-77
2022/11/30 13:02:52;;;;;;;13.73;8.63;;;9.60;99.90;;;;;;7395380;19;20150;-76